sim
Sign-in with your pilot id or email,
or register
Callsign
Passwort

Schedule Details

Flight Number: OEO2581
Departure: Barcelona El Prat Airport (LEBL) at 14:15
Arrival: Munich Airport (EDDM) at 16:15

Weather Information
Getting current METAR information for LEBL 262000Z 26014KT 9999 FEW030 20/09 Q1006 NOSIG
Getting current METAR information for EDDM 262020Z 24018KT 9999 -RA BKN022 BKN034 07/04 Q1001 NOSIG

Schedule Frequency

Route Map